createdAt,value
2022-12-22T00:02:37.267Z,22.67
2022-12-22T00:05:36.550Z,23.00
2022-12-22T00:08:22.186Z,26.12
2022-12-22T00:11:07.906Z,24.30
2022-12-22T00:13:54.150Z,26.40
2022-12-22T00:16:48.506Z,24.65
2022-12-22T00:19:34.115Z,26.65
2022-12-22T00:22:24.403Z,25.55
2022-12-22T00:25:10.139Z,25.62
2022-12-22T00:27:55.740Z,27.27
2022-12-22T00:30:41.438Z,28.25
2022-12-22T00:33:30.682Z,30.58
2022-12-22T00:36:16.267Z,26.45
2022-12-22T00:39:02.047Z,27.62
2022-12-22T00:41:47.776Z,24.27
2022-12-22T00:44:33.297Z,24.50
2022-12-22T00:47:18.929Z,25.62
2022-12-22T00:50:07.696Z,24.55
2022-12-22T00:52:54.345Z,26.65
2022-12-22T00:55:48.483Z,27.02
2022-12-22T00:58:37.645Z,29.70
2022-12-22T01:01:23.445Z,26.52
2022-12-22T01:04:09.163Z,29.10
2022-12-22T01:06:55.376Z,26.65
2022-12-22T01:09:42.034Z,30.33
2022-12-22T01:12:38.532Z,28.73
2022-12-22T01:15:37.061Z,29.90
2022-12-22T01:18:23.407Z,29.20
2022-12-22T01:21:09.062Z,29.63
2022-12-22T01:23:55.169Z,32.13
2022-12-22T01:26:42.358Z,30.10
2022-12-22T01:29:28.107Z,32.75
2022-12-22T01:32:13.818Z,27.05
2022-12-22T01:34:59.783Z,31.15
2022-12-22T01:37:45.964Z,28.23
2022-12-22T01:40:41.863Z,27.90
2022-12-22T01:43:40.116Z,29.67
2022-12-22T01:46:42.928Z,26.98
2022-12-22T01:49:33.881Z,27.45
2022-12-22T01:52:20.486Z,24.25
2022-12-22T01:55:07.284Z,27.08
2022-12-22T01:57:54.196Z,27.23
2022-12-22T02:00:39.885Z,26.10
2022-12-22T02:03:34.680Z,27.48
2022-12-22T02:06:32.626Z,26.02
2022-12-22T02:09:28.186Z,25.62
2022-12-22T02:12:27.969Z,26.80
2022-12-22T02:18:31.015Z,27.62
2022-12-22T02:21:24.905Z,29.05
2022-12-22T02:24:17.172Z,28.05
2022-12-22T02:27:09.093Z,29.35
2022-12-22T02:29:58.422Z,25.70
2022-12-22T02:32:45.152Z,25.65
2022-12-22T02:35:34.346Z,25.80
2022-12-22T02:38:47.436Z,28.45
2022-12-22T02:42:06.314Z,27.83
2022-12-22T02:45:27.366Z,25.47
2022-12-22T02:48:28.687Z,26.67
2022-12-22T02:51:24.365Z,29.23
2022-12-22T02:54:12.546Z,27.62
2022-12-22T02:57:00.344Z,27.62
2022-12-22T02:59:45.995Z,26.33
2022-12-22T03:02:32.824Z,27.30
2022-12-22T03:05:18.971Z,24.37
2022-12-22T03:08:08.332Z,26.55
2022-12-22T03:13:40.859Z,23.75
2022-12-22T03:16:26.595Z,23.52
2022-12-22T03:19:12.565Z,23.87
2022-12-22T03:21:58.279Z,22.27
2022-12-22T03:24:44.195Z,23.52
2022-12-22T03:27:12.205Z,22.75
2022-12-22T03:29:39.744Z,24.67
2022-12-22T03:32:08.849Z,25.60
2022-12-22T03:34:38.368Z,25.67
2022-12-22T03:37:06.016Z,24.73
2022-12-22T03:39:33.089Z,24.30
2022-12-22T03:42:18.942Z,22.73
2022-12-22T03:45:04.526Z,22.80
2022-12-22T03:47:32.211Z,24.05
2022-12-22T03:49:59.095Z,23.98
2022-12-22T03:52:26.147Z,24.87
2022-12-22T03:54:53.050Z,23.20
2022-12-22T03:57:20.056Z,25.98
2022-12-22T03:59:46.966Z,23.83
2022-12-22T04:02:14.038Z,23.23
2022-12-22T04:04:41.034Z,21.65
2022-12-22T04:07:07.927Z,22.73
2022-12-22T04:09:34.890Z,21.25
2022-12-22T04:12:20.324Z,19.90
2022-12-22T04:14:47.305Z,21.98
2022-12-22T04:17:14.201Z,20.42
2022-12-22T04:19:41.483Z,21.37
2022-12-22T04:22:08.998Z,20.08
2022-12-22T04:24:35.919Z,20.77
2022-12-22T04:27:02.814Z,20.75
2022-12-22T04:29:29.754Z,19.95
2022-12-22T04:31:56.817Z,21.75
2022-12-22T04:34:23.946Z,21.10
2022-12-22T04:36:50.845Z,22.42
2022-12-22T04:39:17.752Z,26.30
2022-12-22T04:41:45.394Z,22.87
2022-12-22T04:44:12.323Z,22.83
2022-12-22T04:46:39.258Z,21.10
2022-12-22T04:49:06.144Z,23.52
2022-12-22T04:51:33.124Z,21.75
2022-12-22T04:54:00.049Z,20.20
2022-12-22T04:56:27.084Z,22.13
2022-12-22T04:58:53.975Z,21.80
2022-12-22T05:01:21.313Z,22.40
2022-12-22T05:03:48.529Z,19.23
2022-12-22T05:06:16.410Z,19.00
2022-12-22T05:08:43.372Z,21.08
2022-12-22T05:11:10.658Z,21.73
2022-12-22T05:13:37.763Z,21.23
2022-12-22T05:16:10.609Z,20.85
2022-12-22T05:18:39.422Z,21.95
2022-12-22T05:21:18.548Z,21.27
2022-12-22T05:23:46.210Z,22.08
2022-12-22T05:26:14.862Z,21.77
2022-12-22T05:28:42.832Z,21.77
2022-12-22T05:31:14.249Z,23.12
2022-12-22T05:33:41.164Z,22.48
2022-12-22T05:36:08.495Z,21.67
2022-12-22T05:38:35.416Z,20.42
2022-12-22T05:41:04.635Z,23.92
2022-12-22T05:43:32.920Z,22.40
2022-12-22T05:46:08.669Z,21.65
2022-12-22T05:48:39.169Z,23.00
2022-12-22T05:51:08.797Z,25.27
2022-12-22T05:53:35.914Z,20.80
2022-12-22T05:56:02.902Z,21.37
2022-12-22T05:58:29.825Z,21.40
2022-12-22T06:00:58.716Z,23.12
2022-12-22T06:03:26.813Z,21.90
2022-12-22T06:05:54.413Z,25.00
2022-12-22T06:08:21.573Z,22.75
2022-12-22T06:10:50.631Z,20.45
2022-12-22T06:13:17.665Z,20.58
2022-12-22T06:15:44.621Z,21.73
2022-12-22T06:18:11.974Z,21.98
2022-12-22T06:20:38.846Z,20.15
2022-12-22T06:23:05.745Z,19.42
2022-12-22T06:25:33.213Z,19.40
2022-12-22T06:28:02.882Z,21.62
2022-12-22T06:30:33.633Z,20.08
2022-12-22T06:33:01.797Z,21.87
2022-12-22T06:35:29.038Z,18.70
2022-12-22T06:37:56.225Z,20.27
2022-12-22T06:40:23.463Z,19.20
2022-12-22T06:43:09.873Z,18.95
2022-12-22T06:45:40.265Z,19.87
2022-12-22T06:48:08.410Z,21.40
2022-12-22T06:50:35.432Z,21.42
2022-12-22T06:53:03.164Z,22.77
2022-12-22T06:55:30.084Z,23.92
2022-12-22T06:57:57.078Z,22.05
2022-12-22T07:00:24.093Z,20.90
2022-12-22T07:02:51.169Z,22.02
2022-12-22T07:05:18.267Z,21.23
2022-12-22T07:07:45.504Z,21.42
2022-12-22T07:10:12.792Z,21.02
2022-12-22T07:12:39.774Z,21.27
2022-12-22T07:15:07.327Z,22.27
2022-12-22T07:17:34.395Z,25.05
2022-12-22T07:20:01.459Z,27.52
2022-12-22T07:22:30.753Z,29.15
2022-12-22T07:24:59.299Z,34.25
2022-12-22T07:27:26.338Z,32.78
2022-12-22T07:29:53.255Z,33.90
2022-12-22T07:32:20.139Z,31.23
2022-12-22T07:34:47.090Z,29.05
2022-12-22T07:37:14.204Z,26.05
2022-12-22T07:39:41.347Z,31.12
2022-12-22T07:42:29.575Z,26.60
2022-12-22T07:44:56.547Z,25.70
2022-12-22T07:47:23.740Z,24.60
2022-12-22T07:50:10.198Z,25.35
2022-12-22T07:52:37.312Z,26.65
2022-12-22T07:55:04.434Z,24.20
2022-12-22T07:57:31.552Z,24.63
2022-12-22T07:59:58.553Z,24.48
2022-12-22T08:02:25.761Z,24.63
2022-12-22T08:04:52.765Z,23.87
2022-12-22T08:07:19.744Z,23.85
2022-12-22T08:09:46.724Z,25.42
2022-12-22T08:12:15.388Z,24.92
2022-12-22T08:14:46.202Z,23.05
2022-12-22T08:17:13.503Z,24.02
2022-12-22T08:19:41.124Z,25.45
2022-12-22T08:22:08.146Z,25.45
2022-12-22T08:24:35.089Z,28.48
2022-12-22T08:27:06.313Z,29.30
2022-12-22T08:29:38.866Z,28.02
2022-12-22T08:32:05.929Z,30.33
2022-12-22T08:34:33.134Z,29.08
2022-12-22T08:37:02.245Z,30.52
2022-12-22T08:39:33.043Z,30.05
2022-12-22T08:42:00.735Z,30.75
2022-12-22T08:44:31.572Z,30.00
2022-12-22T08:47:00.334Z,29.48
2022-12-22T08:49:27.743Z,32.00
2022-12-22T08:51:54.996Z,29.20
2022-12-22T08:54:22.288Z,30.37
2022-12-22T08:56:49.829Z,29.35
2022-12-22T08:59:17.549Z,28.92
2022-12-22T09:01:50.886Z,29.67
2022-12-22T09:04:21.283Z,29.87
2022-12-22T09:06:49.157Z,31.08
2022-12-22T09:09:16.782Z,30.37
2022-12-22T09:11:44.016Z,31.80
2022-12-22T09:14:12.649Z,30.80
2022-12-22T09:16:39.993Z,30.52
2022-12-22T09:19:07.255Z,31.20
2022-12-22T09:21:35.128Z,32.42
2022-12-22T09:24:03.556Z,30.05
2022-12-22T09:26:30.702Z,32.55
2022-12-22T09:28:58.194Z,30.95
2022-12-22T09:31:26.336Z,28.02
2022-12-22T09:33:53.680Z,29.98
2022-12-22T09:36:24.093Z,26.60
2022-12-22T09:38:53.635Z,27.62
2022-12-22T09:41:45.924Z,35.00
2022-12-22T09:44:38.479Z,31.05
2022-12-22T09:47:36.343Z,32.03
2022-12-22T09:50:05.444Z,33.28
2022-12-22T09:52:35.558Z,32.22
2022-12-22T09:55:04.834Z,31.20
2022-12-22T09:57:33.043Z,30.88
2022-12-22T10:00:28.593Z,29.90
2022-12-22T10:03:04.216Z,30.12
2022-12-22T10:05:40.324Z,31.08
2022-12-22T10:08:16.973Z,30.58
2022-12-22T10:10:43.946Z,27.67
2022-12-22T10:13:19.998Z,27.23
2022-12-22T10:15:47.238Z,27.70
2022-12-22T10:18:21.863Z,28.75
2022-12-22T10:21:13.932Z,26.02
2022-12-22T10:23:46.545Z,29.25
2022-12-22T10:26:34.084Z,29.20
2022-12-22T10:29:09.381Z,26.08
2022-12-22T10:31:55.021Z,26.95
2022-12-22T10:34:22.184Z,27.48
2022-12-22T10:36:51.802Z,30.88
2022-12-22T10:39:28.339Z,33.90
2022-12-22T10:42:01.298Z,30.95
2022-12-22T10:44:37.365Z,29.02
2022-12-22T10:47:19.745Z,29.20
2022-12-22T10:49:50.053Z,30.50
2022-12-22T10:52:32.326Z,29.80
2022-12-22T10:55:33.070Z,28.92
2022-12-22T10:58:21.813Z,27.45
2022-12-22T11:01:03.096Z,32.80
2022-12-22T11:03:32.028Z,29.63
2022-12-22T11:06:01.103Z,30.67
2022-12-22T11:08:30.491Z,31.77
2022-12-22T11:11:05.631Z,30.30
2022-12-22T11:13:44.638Z,33.28
2022-12-22T11:16:38.402Z,28.87
2022-12-22T11:19:56.158Z,31.30
2022-12-22T11:22:46.163Z,31.10
2022-12-22T11:28:11.143Z,33.70
2022-12-22T11:31:06.509Z,31.02
2022-12-22T11:33:52.345Z,32.92
2022-12-22T11:36:30.505Z,35.05
2022-12-22T11:39:15.103Z,32.03
2022-12-22T11:41:46.539Z,32.65
2022-12-22T11:44:41.344Z,37.80
2022-12-22T11:47:14.524Z,33.05
2022-12-22T11:50:25.451Z,29.67
2022-12-22T11:53:06.031Z,29.98
2022-12-22T11:55:36.077Z,30.42
2022-12-22T11:58:14.879Z,30.92
2022-12-22T12:01:25.595Z,30.73
2022-12-22T12:04:14.718Z,32.10
2022-12-22T12:06:55.074Z,29.30
2022-12-22T12:09:59.199Z,31.70
2022-12-22T12:13:00.921Z,33.35
2022-12-22T12:15:32.833Z,33.78
2022-12-22T12:18:12.733Z,35.92
2022-12-22T12:20:46.618Z,33.85
2022-12-22T12:23:50.690Z,33.75
2022-12-22T12:26:57.083Z,33.25
2022-12-22T12:29:41.236Z,35.58
2022-12-22T12:32:45.343Z,35.78
2022-12-22T12:35:35.967Z,35.55
2022-12-22T12:38:47.928Z,33.05
2022-12-22T12:41:08.177Z,34.97
2022-12-22T12:43:36.294Z,34.75
2022-12-22T12:46:42.179Z,34.53
2022-12-22T12:49:50.843Z,37.40
2022-12-22T12:52:17.765Z,36.13
2022-12-22T12:54:49.493Z,37.60
2022-12-22T12:57:30.926Z,34.40
2022-12-22T12:59:59.851Z,38.13
2022-12-22T13:02:38.297Z,39.10
2022-12-22T13:05:14.823Z,36.53
2022-12-22T13:08:14.679Z,36.45
2022-12-22T13:13:13.835Z,35.60
2022-12-22T13:15:42.976Z,37.83
2022-12-22T13:18:15.947Z,39.03
2022-12-22T13:20:43.153Z,38.75
2022-12-22T13:23:15.321Z,38.63
2022-12-22T13:25:48.211Z,37.38
2022-12-22T13:28:17.587Z,36.30
2022-12-22T13:30:50.715Z,35.53
2022-12-22T13:33:21.268Z,38.30
2022-12-22T13:35:56.545Z,34.15
2022-12-22T13:38:38.013Z,39.22
2022-12-22T13:41:26.623Z,35.03
2022-12-22T13:44:07.015Z,34.72
2022-12-22T13:46:37.965Z,34.40
2022-12-22T13:49:10.356Z,32.42
2022-12-22T13:51:38.774Z,33.00
2022-12-22T13:54:17.558Z,34.22
2022-12-22T13:56:48.167Z,35.20
2022-12-22T13:59:33.520Z,32.58
2022-12-22T14:02:18.104Z,33.78
2022-12-22T14:05:23.805Z,34.78
2022-12-22T14:07:59.895Z,34.53
2022-12-22T14:10:34.243Z,32.40
2022-12-22T14:13:05.804Z,36.25
2022-12-22T14:15:33.211Z,35.78
2022-12-22T14:18:00.503Z,37.22
2022-12-22T14:20:40.390Z,36.17
2022-12-22T14:25:50.709Z,37.33
2022-12-22T14:28:36.340Z,35.20
2022-12-22T14:31:05.938Z,34.42
2022-12-22T14:33:35.027Z,36.97
2022-12-22T14:36:06.750Z,35.65
2022-12-22T14:38:48.367Z,35.72
2022-12-22T14:41:38.134Z,35.13
2022-12-22T14:44:05.697Z,37.80
2022-12-22T14:46:38.619Z,37.08
2022-12-22T14:49:06.387Z,38.85
2022-12-22T14:51:33.337Z,37.00
2022-12-22T14:54:03.151Z,39.85
2022-12-22T14:59:23.917Z,35.80
2022-12-22T15:02:21.156Z,37.88
2022-12-22T15:04:48.441Z,156.15
2022-12-22T15:07:54.445Z,70.45
2022-12-22T15:12:49.104Z,48.03
2022-12-22T15:15:21.695Z,43.00
2022-12-22T15:17:52.286Z,52.08
2022-12-22T15:20:22.744Z,55.78
2022-12-22T15:22:50.238Z,57.28
2022-12-22T15:25:25.221Z,49.13
2022-12-22T15:27:52.638Z,46.47
2022-12-22T15:30:28.935Z,39.08
2022-12-22T15:32:57.163Z,36.38
2022-12-22T15:35:33.151Z,33.90
2022-12-22T15:38:00.690Z,36.00
2022-12-22T15:40:28.927Z,34.33
2022-12-22T15:42:55.865Z,36.45
2022-12-22T15:45:23.193Z,39.55
2022-12-22T15:47:53.843Z,34.83
2022-12-22T15:50:38.666Z,37.45
2022-12-22T15:53:12.827Z,34.67
2022-12-22T15:55:43.177Z,36.45
2022-12-22T15:58:13.804Z,33.17
2022-12-22T16:00:40.779Z,33.88
2022-12-22T16:03:08.116Z,34.45
2022-12-22T16:05:35.185Z,34.53
2022-12-22T16:08:03.045Z,31.55
2022-12-22T16:10:34.307Z,30.25
2022-12-22T16:13:04.368Z,31.83
2022-12-22T16:15:33.952Z,33.05
2022-12-22T16:18:02.557Z,30.40
2022-12-22T16:20:37.784Z,30.77
2022-12-22T16:23:08.042Z,32.40
2022-12-22T16:25:39.209Z,30.08
2022-12-22T16:28:07.271Z,31.05
2022-12-22T16:30:34.829Z,27.52
2022-12-22T16:33:02.005Z,27.70
2022-12-22T16:35:33.575Z,29.30
2022-12-22T16:38:00.829Z,29.95
2022-12-22T16:40:28.575Z,29.15
2022-12-22T16:46:05.975Z,29.92
2022-12-22T16:48:42.707Z,29.10
2022-12-22T16:51:17.163Z,29.00
2022-12-22T16:53:44.209Z,28.92
2022-12-22T16:56:20.522Z,28.38
2022-12-22T16:58:48.428Z,26.92
2022-12-22T17:01:34.841Z,28.20
2022-12-22T17:04:09.935Z,27.40
2022-12-22T17:06:37.589Z,26.55
2022-12-22T17:09:07.667Z,26.60
2022-12-22T17:11:34.772Z,28.65
2022-12-22T17:14:40.534Z,25.58
2022-12-22T17:17:17.764Z,28.08
2022-12-22T17:19:45.251Z,25.45
2022-12-22T17:22:33.811Z,24.85
2022-12-22T17:25:04.726Z,30.00
2022-12-22T17:27:33.934Z,26.60
2022-12-22T17:30:05.909Z,27.13
2022-12-22T17:32:32.933Z,27.42
2022-12-22T17:34:59.875Z,27.90
2022-12-22T17:37:26.912Z,27.13
2022-12-22T17:40:00.430Z,24.15
2022-12-22T17:42:27.471Z,25.35
2022-12-22T17:44:54.412Z,25.35
2022-12-22T17:47:29.031Z,25.83
2022-12-22T17:50:00.987Z,25.43
2022-12-22T17:52:28.557Z,27.27
2022-12-22T17:54:58.080Z,26.77
2022-12-22T17:57:32.951Z,23.77
2022-12-22T18:00:00.789Z,26.73
2022-12-22T18:02:28.182Z,25.95
2022-12-22T18:04:55.304Z,23.80
2022-12-22T18:07:24.989Z,25.25
2022-12-22T18:09:59.281Z,23.77
2022-12-22T18:12:26.891Z,24.98
2022-12-22T18:14:54.585Z,26.58
2022-12-22T18:17:35.577Z,23.75
2022-12-22T18:20:03.130Z,27.75
2022-12-22T18:22:30.957Z,25.80
2022-12-22T18:24:58.096Z,25.95
2022-12-22T18:27:25.146Z,24.70
2022-12-22T18:29:52.195Z,24.58
2022-12-22T18:32:27.019Z,26.20
2022-12-22T18:34:56.828Z,25.55
2022-12-22T18:37:23.794Z,25.10
2022-12-22T18:39:50.786Z,23.35
2022-12-22T18:42:23.443Z,25.02
2022-12-22T18:44:51.600Z,23.87
2022-12-22T18:47:18.900Z,25.00
2022-12-22T18:49:46.176Z,28.52
2022-12-22T18:52:19.551Z,39.42
2022-12-22T18:54:47.491Z,79.68
2022-12-22T18:57:16.768Z,55.00
2022-12-22T18:59:44.368Z,51.25
2022-12-22T19:02:26.548Z,55.25
2022-12-22T19:04:54.669Z,48.35
2022-12-22T19:07:24.564Z,48.78
2022-12-22T19:12:25.467Z,28.20
2022-12-22T19:14:57.553Z,29.60
2022-12-22T19:17:29.083Z,26.73
2022-12-22T19:19:57.077Z,26.15
2022-12-22T19:22:24.320Z,26.95
2022-12-22T19:24:51.818Z,26.40
2022-12-22T19:27:27.019Z,25.67
2022-12-22T19:30:03.030Z,24.70
2022-12-22T19:32:36.111Z,26.35
2022-12-22T19:35:03.221Z,26.60
2022-12-22T19:37:30.182Z,25.20
2022-12-22T19:39:57.085Z,28.33
2022-12-22T19:42:25.563Z,26.67
2022-12-22T19:44:52.521Z,30.95
2022-12-22T19:47:22.159Z,30.17
2022-12-22T19:49:49.144Z,29.27
2022-12-22T19:52:16.065Z,31.60
2022-12-22T19:54:42.995Z,32.15
2022-12-22T19:57:18.431Z,32.47
2022-12-22T19:59:48.975Z,34.03
2022-12-22T20:02:28.310Z,30.62
2022-12-22T20:04:56.315Z,32.88
2022-12-22T20:07:26.164Z,30.25
2022-12-22T20:12:22.997Z,32.45
2022-12-22T20:14:49.999Z,33.15
2022-12-22T20:17:16.990Z,36.28
2022-12-22T20:19:43.969Z,33.72
2022-12-22T20:22:16.393Z,36.20
2022-12-22T20:24:45.362Z,36.63
2022-12-22T20:27:23.392Z,36.00
2022-12-22T20:29:50.429Z,34.53
2022-12-22T20:32:22.299Z,73.60
2022-12-22T20:34:55.680Z,41.78
2022-12-22T20:37:22.698Z,39.60
2022-12-22T20:39:49.673Z,40.03
2022-12-22T20:42:22.675Z,40.75
2022-12-22T20:45:01.559Z,37.78
2022-12-22T20:47:28.873Z,37.22
2022-12-22T20:49:55.725Z,37.28
2022-12-22T20:52:22.586Z,36.83
2022-12-22T20:54:49.600Z,33.50
2022-12-22T20:57:17.212Z,34.47
2022-12-22T20:59:44.655Z,33.75
2022-12-22T21:02:37.680Z,31.08
2022-12-22T21:05:05.104Z,27.50
2022-12-22T21:07:32.251Z,32.92
2022-12-22T21:09:59.377Z,32.85
2022-12-22T21:12:26.235Z,32.10
2022-12-22T21:14:53.101Z,32.92
2022-12-22T21:17:20.125Z,32.08
2022-12-22T21:19:47.334Z,37.00
2022-12-22T21:22:14.396Z,32.53
2022-12-22T21:24:42.034Z,34.63
2022-12-22T21:27:16.110Z,46.08
2022-12-22T21:29:50.457Z,40.67
2022-12-22T21:32:19.100Z,43.38
2022-12-22T21:34:45.952Z,45.30
2022-12-22T21:37:19.129Z,37.75
2022-12-22T21:39:46.025Z,43.55
2022-12-22T21:42:16.719Z,39.72
2022-12-22T21:44:45.021Z,42.38
2022-12-22T21:47:19.845Z,37.22
2022-12-22T21:49:46.862Z,38.38
2022-12-22T21:52:13.706Z,36.95
2022-12-22T21:54:40.583Z,35.33
2022-12-22T21:57:11.399Z,41.00
2022-12-22T21:59:38.236Z,38.80
2022-12-22T22:02:14.021Z,35.40
2022-12-22T22:04:40.925Z,37.42
2022-12-22T22:07:07.970Z,37.70
2022-12-22T22:09:34.927Z,40.10
2022-12-22T22:12:26.412Z,38.17
2022-12-22T22:14:55.028Z,45.15
2022-12-22T22:17:21.849Z,45.33
2022-12-22T22:19:48.704Z,45.80
2022-12-22T22:22:15.685Z,45.40
2022-12-22T22:24:42.506Z,40.30
2022-12-22T22:27:09.328Z,41.45
2022-12-22T22:29:36.268Z,39.95
2022-12-22T22:32:03.212Z,41.25
2022-12-22T22:34:30.145Z,40.17
2022-12-22T22:36:57.070Z,39.08
2022-12-22T22:39:24.267Z,41.95
2022-12-22T22:41:51.138Z,40.00
2022-12-22T22:44:18.129Z,41.05
2022-12-22T22:46:45.037Z,48.05
2022-12-22T22:49:11.992Z,44.55
2022-12-22T22:51:38.979Z,42.70
2022-12-22T22:54:05.852Z,49.58
2022-12-22T22:56:32.867Z,47.40
2022-12-22T22:59:00.136Z,46.22
2022-12-22T23:01:29.197Z,52.65
2022-12-22T23:03:56.194Z,57.10
2022-12-22T23:06:23.428Z,61.78
2022-12-22T23:08:50.931Z,57.58
2022-12-22T23:11:17.814Z,60.60
2022-12-22T23:13:45.596Z,56.75
2022-12-22T23:16:12.562Z,58.58
2022-12-22T23:18:41.291Z,61.83
2022-12-22T23:21:09.726Z,45.95
2022-12-22T23:23:36.891Z,45.22
2022-12-22T23:26:03.947Z,49.15
2022-12-22T23:28:32.356Z,52.33
2022-12-22T23:30:59.375Z,49.92
2022-12-22T23:33:26.305Z,58.63
2022-12-22T23:35:53.676Z,54.33
2022-12-22T23:38:21.213Z,57.92
2022-12-22T23:40:53.665Z,57.35
2022-12-22T23:43:21.907Z,54.75
2022-12-22T23:45:49.053Z,57.15
2022-12-22T23:48:15.966Z,131.18
2022-12-22T23:50:46.629Z,118.53
2022-12-22T23:53:14.099Z,72.45
2022-12-22T23:55:45.061Z,51.80
2022-12-22T23:58:12.075Z,62.62
